Weather observations for the past three days for
Big Rapids, Roben-Hood Airport
Imperial (Metric)
Date Time (edt) Wind (mph) Vis. (mi.) Weather Sky Cond. Temperature (ºF) Relative Humidity Wind Chill (°F) Heat Index (°F) Pressure Precipitation (in)
Air Dwpt 6 hour altimeter (in) sea level (mb) 1 hr 3 hr 6 hr
Max. Min.
05 18:35 NW 14 G 18 10.00 Fair CLR 51.8 24.8 35% 29.75 0.0
05 18:15 NW 9 G 21 10.00 A Few Clouds FEW065 51.8 24.8 35% 29.74 0.0
05 17:55 NW 10 G 21 10.00 A Few Clouds FEW065 53.6 26.6 35% 29.74 0.0
05 17:35 W 15 G 20 10.00 Fair CLR 55.4 28.4 36% 29.74 0.0
05 17:15 W 16 10.00 Fair CLR 53.6 26.6 35% 29.73 0.0
05 16:55 W 15 G 24 10.00 Fair CLR 53.6 26.6 35% 29.74 0.0
05 16:35 W 14 G 20 10.00 Fair CLR 53.6 26.6 35% 29.74 0.0
05 16:15 W 17 G 23 10.00 Fair CLR 53.6 24.8 33% 29.74 0.0
05 15:55 W 9 10.00 Fair CLR 53.6 26.6 35% 29.74 0.0
05 15:35 W 17 G 24 10.00 Fair CLR 53.6 24.8 33% 29.74 0.0
05 15:15 W 18 G 23 10.00 Fair CLR 55.4 24.8 31% 29.72 0.0
05 14:55 W 14 G 25 10.00 Fair CLR 53.6 24.8 33% 29.72 0.0
05 14:35 W 13 G 20 10.00 Fair CLR 55.4 24.8 31% 29.73 0.0
05 14:15 W 15 G 25 10.00 Fair CLR 55.4 24.8 31% 29.72 0.0
05 13:55 W 15 G 25 10.00 Fair CLR 55.4 23 55 44.2 28% 29.71 0.0
05 13:35 W 12 G 17 10.00 Fair CLR 53.6 24.8 33% 29.7 0.0
05 13:15 W 17 G 22 10.00 Fair CLR 53.6 23 30% 29.71 0.0
05 12:55 W 14 G 23 10.00 Fair CLR 53.6 23 30% 29.71 0.0
05 12:35 W 15 G 20 10.00 Fair CLR 53.6 23 30% 29.71 0.0
05 12:15 W 17 G 22 10.00 Fair CLR 51.8 23 32% 29.71 0.0
05 11:55 W 18 G 22 10.00 Fair CLR 51.8 21.2 30% 29.71 0.0
05 11:35 W 12 G 20 10.00 Fair CLR 51.8 24.8 35% 29.71 0.0
05 11:15 W 12 G 23 10.00 Fair CLR 51.8 26.6 38% 29.72 0.0
05 10:55 W 14 G 22 10.00 A Few Clouds FEW048 50 24.8 37% 45 29.72 0.0
05 10:35 W 13 G 18 10.00 Overcast OVC048 48.2 26.6 43% 43 29.72 0.0
05 10:15 W 15 G 20 10.00 Mostly Cloudy BKN048 48.2 28.4 46% 43 29.71 0.0
05 09:55 W 13 G 17 10.00 A Few Clouds FEW039 48.2 28.4 46% 43 29.71 0.0
05 09:35 W 9 10.00 A Few Clouds FEW039 48.2 30.2 50% 45 29.71 0.0
05 09:15 W 16 10.00 A Few Clouds FEW040 48.2 30.2 50% 43 29.71 0.0
05 08:55 W 8 G 18 10.00 Partly Cloudy SCT040 48.2 32 54% 45 29.68 0.0
05 08:35 W 8 10.00 Fair CLR 46.4 37.4 71% 43 29.68 0.0
05 08:15 NW 7 10.00 Fair CLR 44.6 35.6 71% 41 29.67 0.0
05 07:55 W 6 10.00 Fair CLR 44.6 35.6 57 41.7 71% 42 29.67 0.0
05 07:35 W 5 10.00 Fair CLR 42.8 33.8 71% 41 29.66 0.0
05 07:15 W 6 10.00 Fair CLR 42.8 33.8 71% 40 29.64 0.0
05 06:55 NW 6 10.00 Fair CLR 42.8 33.8 71% 40 29.63 0.0
05 06:35 W 6 10.00 Fair CLR 42.8 33.8 71% 40 29.63 0.0
05 06:15 NW 6 10.00 Fair CLR 42.8 33.8 71% 40 29.62 0.0
05 05:55 NW 5 10.00 Fair CLR 42.8 33.8 71% 41 29.61 0.0
05 05:35 N 3 10.00 Fair CLR 44.6 33.8 66% 29.6 0.0
05 05:15 N 3 10.00 Fair CLR 44.6 35.6 71% 29.59 0.0
05 04:55 N 6 10.00 A Few Clouds FEW020 46.4 37.4 71% 44 29.58 0.0
05 04:35 N 9 G 17 10.00 Mostly Cloudy BKN018 BKN024 48.2 39.2 71% 45 29.57 0.0
05 04:15 N 9 10.00 Mostly Cloudy BKN016 48.2 42.8 82% 45 29.56 0.0
05 03:55 N 10 10.00 A Few Clouds FEW110 48.2 42.8 82% 44 29.54 0.0
05 03:35 N 15 G 22 10.00 Mostly Cloudy BKN110 51.8 41 67% 29.52 0.0
05 03:15 NW 10 10.00 Mostly Cloudy BKN100 BKN120 55.4 33.8 44% 29.51 0.0
05 02:55 W 5 10.00 A Few Clouds FEW120 55.4 35.6 47% 29.5 0.0
05 02:35 W 10 10.00 Partly Cloudy SCT120 55.4 37.4 51% 29.5 0.0
05 02:15 W 10 10.00 Mostly Cloudy BKN120 55.4 37.4 51% 29.5 0.0
05 01:55 W 13 G 20 10.00 Partly Cloudy FEW085 SCT095 57.2 37.4 71.2 54.5 48% 29.49 0.0
05 01:35 W 12 10.00 Overcast FEW065 FEW080 OVC095 57.2 41 55% 29.48 0.0
05 01:15 W 9 10.00 Mostly Cloudy BKN085 BKN095 BKN110 57.2 42.8 59% 29.48 0.0
05 00:55 W 7 10.00 Overcast FEW070 BKN085 OVC095 57.2 44.6 63% 29.47 0.0
05 00:35 W 9 10.00 Mostly Cloudy BKN095 BKN110 55.4 48.2 77% 29.47 0.0
05 00:15 SW 8 10.00 Mostly Cloudy SCT080 BKN110 55.4 50 82% 29.47 0.0
04 23:55 W 8 10.00 Mostly Cloudy BKN080 BKN110 55.4 50 82% 29.48 0.0 0.01
04 23:35 W 12 10.00 Light Rain FEW070 OVC090 57.2 48.2 72% 29.47 0.0
04 23:15 W 8 10.00 Overcast BKN090 OVC110 60.8 44.6 55% 29.46 0.0
04 22:55 SW 9 10.00 Mostly Cloudy BKN100 BKN120 59 46.4 63% 29.44 0.0
04 22:35 SW 7 10.00 Partly Cloudy SCT100 SCT120 59 48.2 68% 29.44 0.0
04 22:15 SW 6 10.00 Fair CLR 57.2 46.4 67% 29.44 0.0
04 21:55 W 9 10.00 Partly Cloudy FEW070 FEW090 SCT110 59 48.2 68% 29.43 0.0
04 21:35 SW 8 G 17 10.00 Light Rain FEW070 FEW090 BKN110 62.6 46.4 56% 29.42 0.0
04 21:15 NW 7 G 18 10.00 Mostly Cloudy SCT090 BKN120 66.2 42.8 43% 29.41 0.0
04 20:55 NW 17 G 23 10.00 Overcast BKN100 OVC120 69.8 39.2 33% 29.43 0.0
04 20:35 SW 8 G 20 10.00 Partly Cloudy SCT120 69.8 39.2 33% 29.38 0.0
04 20:15 SW 14 G 22 10.00 Fair CLR 69.8 37.4 31% 29.38 0.0
04 19:55 SW 12 G 20 10.00 Fair CLR 69.8 37.4 73.4 70.9 31% 29.38 0.0
04 19:35 SW 13 G 28 10.00 Fair CLR 71.6 37.4 29% 29.39 0.0
04 19:15 SW 16 G 26 10.00 Fair CLR 71.6 39.2 31% 29.4 0.0
04 18:55 SW 24 G 31 10.00 Fair and Breezy CLR 71.6 37.4 29% 29.41 0.0
04 18:35 SW 18 G 28 10.00 Fair CLR 71.6 37.4 29% 29.42 0.0
04 18:15 SW 13 G 28 10.00 Fair CLR 71.6 39.2 31% 29.43 0.0
04 17:55 SW 24 G 39 10.00 Fair and Breezy CLR 71.6 37.4 29% 29.43 0.0
04 17:35 SW 18 G 32 10.00 Fair CLR 71.6 37.4 29% 29.44 0.0
04 17:15 SW 17 G 35 10.00 Fair CLR 71.6 37.4 29% 29.44 0.0
04 16:55 SW 21 G 38 10.00 Fair and Breezy CLR 71.6 35.6 27% 29.45 0.0
04 16:35 SW 23 G 37 10.00 Fair and Breezy CLR 71.6 33.8 25% 29.45 0.0
04 16:15 SW 25 G 35 10.00 Fair and Breezy CLR 71.6 33.8 25% 29.45 0.0
04 15:35 SW 24 G 33 10.00 Fair and Breezy CLR 71.6 32 23% 29.46 0.0
04 15:15 SW 24 G 35 10.00 Fair and Breezy CLR 71.6 32 23% 29.46 0.0
04 14:55 SW 23 G 40 10.00 Fair and Breezy CLR 73.4 32 22% 29.46 0.0
04 14:35 SW 25 G 39 10.00 Fair and Breezy CLR 71.6 32 23% 29.47 0.0
04 14:15 W 28 G 39 10.00 Fair and Windy CLR 71.6 32 23% 29.47 0.0
04 13:55 SW 25 G 46 10.00 Fair and Breezy CLR 71.6 30.2 72.1 48.2 22% 29.48 0.0
04 13:35 SW 24 G 38 10.00 Fair and Breezy CLR 71.6 32 23% 29.48 0.0
04 13:15 SW 22 G 35 10.00 Fair and Breezy CLR 71.6 33.8 25% 29.49 0.0
04 12:55 SW 28 G 32 10.00 Fair and Windy CLR 69.8 33.8 27% 29.5 0.0
04 12:35 SW 20 G 31 10.00 Fair CLR 69.8 35.6 29% 29.51 0.0
04 12:15 SW 22 G 30 10.00 Fair and Breezy CLR 69.8 37.4 31% 29.51 0.0
04 11:55 SW 24 G 29 10.00 Fair and Breezy CLR 69.8 37.4 31% 29.52 0.0
04 11:35 SW 21 G 29 10.00 Fair and Breezy CLR 68 37.4 33% 29.52 0.0
04 11:15 SW 14 G 25 10.00 Fair CLR 66.2 39.2 37% 29.53 0.0
04 10:55 SW 15 G 26 10.00 Fair CLR 66.2 39.2 37% 29.54 0.0
04 10:35 SW 14 G 20 10.00 Fair CLR 64.4 41 43% 29.55 0.0
04 10:15 SW 13 G 20 10.00 Fair CLR 62.6 39.2 42% 29.55 0.0
04 09:55 S 10 G 20 10.00 Fair CLR 60.8 41 48% 29.56 0.0
04 09:35 S 10 10.00 Fair CLR 59 42.8 55% 29.57 0.0
04 09:15 S 12 10.00 Fair CLR 57.2 41 55% 29.57 0.0
04 08:55 S 8 10.00 Fair CLR 55.4 42.8 63% 29.58 0.0
04 08:35 S 7 G 16 10.00 Fair CLR 53.6 42.8 67% 29.58 0.0
04 08:15 SW 7 10.00 Fair CLR 51.8 42.8 72% 29.58 0.0
04 07:55 SW 5 10.00 Fair CLR 50 42.8 50.7 41.2 76% 49 29.57 0.0
04 07:35 SE 5 10.00 Fair CLR 44.6 42.8 93% 43 29.57 0.0
04 07:15 SE 6 10.00 Fair CLR 42.8 39.2 87% 40 29.57 0.0
04 06:55 SE 6 10.00 Fair CLR 41 39.2 93% 38 29.58 0.0
04 06:35 SE 3 10.00 Fair CLR 42.8 41 93% 29.58 0.0
04 06:15 SE 5 10.00 Fair CLR 44.6 41 87% 43 29.58 0.0
04 05:55 Vrbl 2 10.00 Fair CLR 44.6 41 87% 29.58 0.0
04 05:35 SE 3 10.00 Fair CLR 44.6 41 87% 29.59 0.0
04 05:15 S 7 10.00 Fair CLR 50 42.8 76% 48 29.59 0.0
04 04:55 SW 8 10.00 Fair CLR 50 42.8 76% 47 29.6 0.0
04 04:35 SW 7 10.00 Fair CLR 50 42.8 76% 48 29.6 0.0
04 04:15 SW 3 10.00 Fair CLR 50 41 71% 29.61 0.0
04 03:55 S 6 10.00 Fair CLR 50 42.8 76% 48 29.61 0.0
04 03:35 SW 6 10.00 Fair CLR 50 42.8 76% 48 29.61 0.0
04 03:15 S 5 10.00 Fair CLR 50 41 71% 49 29.61 0.0
04 02:55 S 7 10.00 Fair CLR 50 41 71% 48 29.61 0.0
04 02:35 S 6 10.00 Fair CLR 50 41 71% 48 29.62 0.0
04 02:15 S 7 10.00 Fair CLR 50 41 71% 48 29.62 0.0
04 01:55 S 7 10.00 Fair CLR 50 41 55.4 48.9 71% 48 29.63 0.0
04 01:35 Vrbl 7 10.00 Fair CLR 50 41 71% 48 29.63 0.0
04 01:15 Vrbl 6 10.00 Fair CLR 50 41 71% 48 29.64 0.0
04 00:55 S 6 10.00 Fair CLR 50 41 71% 48 29.65 0.0
04 00:35 Vrbl 5 10.00 Fair CLR 50 41 71% 49 29.65 0.0
04 00:15 S 5 10.00 Fair CLR 50 41 71% 49 29.65 0.0
03 23:55 Vrbl 3 10.00 Fair CLR 50 39.2 67% 29.66 0.0
03 23:35 Vrbl 2 10.00 Fair CLR 51.8 39.2 62% 29.66 0.0
03 23:15 S 7 10.00 A Few Clouds FEW090 51.8 39.2 62% 29.66 0.0
03 22:55 S 7 10.00 A Few Clouds FEW090 FEW110 51.8 39.2 62% 29.67 0.0
03 22:35 S 6 10.00 Fair CLR 51.8 39.2 62% 29.68 0.0
03 22:15 S 8 10.00 Fair CLR 51.8 39.2 62% 29.67 0.0
03 21:55 S 8 10.00 Fair CLR 51.8 39.2 62% 29.68 0.0
03 21:35 SW 9 10.00 Fair CLR 53.6 39.2 58% 29.68 0.0
03 21:15 Vrbl 7 10.00 A Few Clouds FEW055 53.6 37.4 54% 29.68 0.0
03 20:55 SW 9 G 20 10.00 Mostly Cloudy BKN055 53.6 37.4 54% 29.68 0.0
03 20:35 S 10 10.00 Overcast OVC055 55.4 37.4 51% 29.68 0.0
03 20:15 S 12 G 18 10.00 Mostly Cloudy BKN055 55.4 37.4 51% 29.68 0.0
03 19:55 S 15 G 20 10.00 A Few Clouds FEW055 55.4 37.4 60.4 53.4 51% 29.68 0.0
03 19:35 SW 10 G 18 10.00 Fair CLR 55.4 37.4 51% 29.68 0.0
03 19:15 SW 16 G 29 10.00 Fair CLR 55.4 37.4 51% 29.69 0.0
03 18:55 SW 15 G 24 10.00 Fair CLR 55.4 37.4 51% 29.69 0.0
03 18:35 SW 22 G 29 10.00 Fair and Breezy CLR 55.4 35.6 47% 29.7 0.0
03 18:15 SW 21 G 30 10.00 Fair and Breezy CLR 57.2 37.4 48% 29.71 0.0
03 17:55 SW 20 G 30 10.00 Fair CLR 55.4 37.4 51% 29.71 0.0
03 17:35 SW 18 G 26 10.00 Fair CLR 55.4 37.4 51% 29.72 0.0
03 17:15 SW 21 G 29 10.00 Fair and Breezy CLR 55.4 37.4 51% 29.72 0.0
03 16:55 SW 15 G 30 10.00 Mostly Cloudy BKN075 55.4 39.2 55% 29.74 0.0
03 16:35 SW 15 G 40 10.00 Overcast OVC075 53.6 37.4 54% 29.75 0.0
03 16:15 SW 20 G 29 10.00 Overcast OVC065 53.6 37.4 54% 29.75 0.0
03 15:55 SW 17 G 33 10.00 Overcast FEW044 BKN065 OVC085 55.4 39.2 55% 29.76 0.0
03 15:35 SW 23 G 33 10.00 Mostly Cloudy and Breezy FEW044 BKN085 BKN110 57.2 39.2 51% 29.75 0.0
03 15:15 SW 23 G 33 10.00 Mostly Cloudy and Breezy BKN085 BKN110 59 39.2 48% 29.74 0.0
03 14:55 W 23 G 29 10.00 Partly Cloudy and Breezy SCT095 60.8 39.2 45% 29.75 0.0
03 14:35 SW 20 G 32 10.00 A Few Clouds FEW090 59 39.2 48% 29.76 0.0
03 14:15 W 21 G 30 10.00 A Few Clouds and Breezy FEW090 59 39.2 48% 29.76 0.0
03 13:55 SW 22 G 32 10.00 Fair and Breezy CLR 59 37.4 59.9 44.2 45% 29.76 0.0
03 13:35 SW 14 G 26 10.00 A Few Clouds FEW085 59 37.4 45% 29.77 0.0
03 13:15 SW 16 G 23 10.00 Partly Cloudy SCT085 59 37.4 45% 29.78 0.0
03 12:55 SW 20 G 29 10.00 Mostly Cloudy SCT085 BKN100 55.4 37.4 51% 29.79 0.0
03 12:35 SW 18 G 28 10.00 Mostly Cloudy BKN095 57.2 35.6 44% 29.79 0.0
03 12:15 SW 22 G 28 10.00 Overcast and Breezy SCT070 OVC095 53.6 33.8 47% 29.79 0.0
03 11:55 SW 14 G 20 10.00 Overcast BKN060 OVC075 51.8 33.8 50% 29.81 0.0
03 11:35 SW 17 G 23 10.00 Overcast FEW047 BKN060 OVC085 51.8 33.8 50% 29.82 0.0
03 11:15 SW 15 G 26 10.00 Overcast FEW049 BKN065 OVC075 51.8 33.8 50% 29.82 0.0
03 10:55 SW 9 10.00 Overcast BKN060 OVC070 50 33.8 54% 47 29.82 0.0
03 10:35 SW 10 G 18 10.00 Light Drizzle OVC050 50 33.8 54% 46 29.83 0.0
03 10:15 SW 12 10.00 Light Rain OVC050 48.2 33.8 58% 44 29.84 0.0
03 09:55 SW 13 10.00 Light Drizzle BKN050 OVC060 48.2 33.8 58% 43 29.84 0.0
03 09:35 SW 14 G 21 10.00 Overcast FEW050 OVC055 48.2 32 54% 43 29.84 0.0
03 09:15 SW 12 10.00 Light Rain SCT055 BKN065 OVC075 46.4 33.8 62% 42 29.84 0.0
03 08:55 SW 14 G 24 10.00 Overcast BKN060 OVC075 48.2 32 54% 43 29.84 0.0
03 08:35 SW 14 10.00 Mostly Cloudy SCT070 BKN075 48.2 30.2 50% 43 29.84 0.0
03 08:15 W 9 10.00 Partly Cloudy FEW075 SCT085 SCT090 46.4 32 57% 42 29.84 0.0
03 07:55 SW 9 10.00 Overcast BKN075 OVC085 44.6 30.2 44.4 33.3 57% 40 29.84 0.0
03 07:35 SW 12 G 18 10.00 Overcast BKN095 OVC120 42.8 30.2 61% 37 29.83 0.0
03 07:15 SW 10 G 18 10.00 Mostly Cloudy FEW095 BKN120 42.8 30.2 61% 38 29.84 0.0
03 06:55 SW 9 10.00 Overcast OVC120 42.8 30.2 61% 38 29.83 0.0
03 06:35 SW 8 10.00 Mostly Cloudy BKN120 41 30.2 66% 36 29.84 0.0
03 06:15 Vrbl 2 10.00 Fair CLR 33.8 28.4 81% 29.84 0.0
03 05:55 Vrbl 2 10.00 Fair CLR 33.8 26.6 75% 29.85 0.0
03 05:35 Vrbl 3 10.00 Fair CLR 35.6 26.6 70% 29.85 0.0
03 05:15 Vrbl 2 10.00 Fair CLR 39.2 28.4 65% 29.86 0.0
03 04:55 SW 6 10.00 Fair CLR 39.2 26.6 61% 36 29.86 0.0
03 04:35 S 6 10.00 Fair CLR 39.2 26.6 61% 36 29.87 0.0
03 04:15 S 5 10.00 Fair CLR 39.2 24.8 56% 36 29.87 0.0
03 03:55 Vrbl 6 10.00 Fair CLR 39.2 24.8 56% 36 29.87 0.0
03 03:35 S 6 10.00 Fair CLR 39.2 23 52% 36 29.88 0.0
03 03:15 S 5 10.00 Fair CLR 37.4 24.8 60% 34 29.88 0.0
03 02:55 Vrbl 6 10.00 Fair CLR 39.2 23 52% 36 29.89 0.0
03 02:35 S 5 10.00 Fair CLR 39.2 23 52% 36 29.89 0.0
03 02:15 S 5 10.00 Fair CLR 37.4 23 56% 34 29.9 0.0
03 01:55 SE 5 10.00 Fair CLR 37.4 23 48.9 35.4 56% 34 29.91 0.0
03 01:35 Vrbl 6 10.00 A Few Clouds FEW090 35.6 24.8 65% 31 29.92 0.0
03 01:15 SE 3 10.00 A Few Clouds FEW090 37.4 23 56% 29.93 0.0
03 00:55 SE 3 10.00 Partly Cloudy SCT090 37.4 23 56% 29.93 0.0
03 00:35 S 3 10.00 Partly Cloudy SCT090 37.4 23 56% 29.94 0.0
03 00:15 S 5 10.00 Partly Cloudy SCT090 39.2 23 52% 36 29.94 0.0
02 23:55 SW 7 10.00 Partly Cloudy SCT085 37.4 23 56% 33 29.95 0.0
02 23:35 SW 8 10.00 Partly Cloudy SCT085 39.2 24.8 56% 34 29.95 0.0
02 23:15 SW 8 10.00 Fair CLR 39.2 24.8 56% 34 29.96 0.0
02 22:55 SW 10 10.00 Fair CLR 39.2 24.8 56% 33 29.96 0.0
02 22:35 SW 8 10.00 Fair CLR 39.2 24.8 56% 34 29.96 0.0
02 22:15 SW 3 10.00 Fair CLR 39.2 24.8 56% 29.96 0.0
02 21:55 SW 3 10.00 Fair CLR 39.2 24.8 56% 29.96 0.0
02 21:35 W 3 10.00 Fair CLR 41 23 49% 29.96 0.0
02 21:15 W 3 10.00 Fair CLR 42.8 21.2 42% 29.95 0.0
02 20:55 SW 2 10.00 Fair CLR 44.6 21.2 39% 29.95 0.0
02 20:35 W 3 10.00 Fair CLR 46.4 19.4 34% 29.96 0.0
02 20:15 NW 6 10.00 Fair CLR 48.2 17.6 29% 46 29.95 0.0
02 19:55 W 7 10.00 Fair CLR 48.2 15.8 52.2 45.9 27% 46 29.96 0.0
02 19:35 NW 10 G 16 10.00 Fair CLR 48.2 17.6 29% 44 29.96 0.0
02 19:15 NW 9 10.00 Fair CLR 50 17.6 28% 47 29.96 0.0
02 18:55 NW 7 G 16 10.00 Fair CLR 50 15.8 26% 48 29.97 0.0
Date Time (edt) Wind (mph) Vis. (mi.) Weather Sky Cond. Air Dwpt Max. Min. Relative Humidity Wind Chill (°F) Heat Index (°F) altimeter (in) sea level (mb) 1 hr 3 hr 6 hr
6 hour
Temperature (ºF) Pressure Precipitation (in)